Time;durP1;ratioP1;P1;durP2;ratioP2;P2;SDS_P1;SDS_P2;PMS_P1;PMS_P2;Temp;Humidity;BMP_temperature;BMP_pressure;BME280_temperature;BME280_humidity;BME280_pressure;Samples;Min_cycle;Max_cycle;Signal;HPM_P1;HPM_P2
2021/04/21 00:02:23;;;;;;;46.38;20.17;;;;;;;;;;8310276;28;20364;-73
2021/04/21 00:06:28;;;;;;;45.80;20.90;;;;;;;;;;8310504;28;20082;-70
2021/04/21 00:10:33;;;;;;;40.95;18.38;;;;;;;;;;8328096;28;20474;-70
2021/04/21 00:14:38;;;;;;;47.58;20.20;;;;;;;;;;8309717;28;20363;-71
2021/04/21 00:18:44;;;;;;;39.20;18.85;;;;;;;;;;8308973;28;20914;-71
2021/04/21 00:22:59;;;;;;;44.05;20.42;;;;;;;;;;8310877;28;20362;-70
2021/04/21 00:27:06;;;;;;;43.28;18.65;;;;;;;;;;8327179;28;20363;-73
2021/04/21 00:31:13;;;;;;;51.63;23.98;;;;;;;;;;8310459;28;20361;-70
2021/04/21 00:35:35;;;;;;;58.78;27.70;;;;;;;;;;8310519;28;20467;-70
2021/04/21 00:39:44;;;;;;;136.82;55.05;;;;;;;;;;8311093;28;20382;-72
2021/04/21 00:44:01;;;;;;;158.10;58.53;;;;;;;;;;8309151;28;20063;-70
2021/04/21 00:48:54;;;;;;;127.20;50.53;;;;;;;;;;8309810;28;20355;-71
2021/04/21 00:53:13;;;;;;;69.75;30.42;;;;;;;;;;8297067;28;20369;-70
2021/04/21 00:58:10;;;;;;;60.33;25.40;;;;;;;;;;8295110;28;20442;-71
2021/04/21 01:02:18;;;;;;;67.30;28.00;;;;;;;;;;8293495;28;20044;-71
2021/04/21 01:06:38;;;;;;;;;;;;;;;;;;8292808;28;20402;-70
2021/04/21 01:10:58;;;;;;;59.95;25.40;;;;;;;;;;8292530;28;20372;-71
2021/04/21 01:15:05;;;;;;;51.35;23.13;;;;;;;;;;8291560;28;20383;-70
2021/04/21 01:19:31;;;;;;;53.50;23.33;;;;;;;;;;8325372;28;20409;-71
2021/04/21 01:24:10;;;;;;;58.95;24.55;;;;;;;;;;8325103;28;20047;-70
2021/04/21 01:28:20;;;;;;;53.53;22.15;;;;;;;;;;8310739;28;20059;-70
2021/04/21 01:32:29;;;;;;;47.75;22.20;;;;;;;;;;8308463;28;20371;-72
2021/04/21 01:36:34;;;;;;;;;;;;;;;;;;8308223;28;20478;-71
2021/04/21 01:40:44;;;;;;;48.42;22.05;;;;;;;;;;8326500;28;20390;-70
2021/04/21 01:44:51;;;;;;;48.38;21.63;;;;;;;;;;8307639;28;20356;-70
2021/04/21 01:49:28;;;;;;;68.32;21.67;;;;;;;;;;8307165;28;20059;-71
2021/04/21 01:53:48;;;;;;;52.78;20.80;;;;;;;;;;8309545;28;20111;-70
2021/04/21 01:58:01;;;;;;;41.55;20.45;;;;;;;;;;8306837;28;20051;-71
2021/04/21 02:02:23;;;;;;;42.47;21.63;;;;;;;;;;8307643;28;20477;-71
2021/04/21 02:06:55;;;;;;;49.15;20.00;;;;;;;;;;8324632;28;20119;-72
2021/04/21 02:11:21;;;;;;;45.95;21.52;;;;;;;;;;8306905;28;20447;-71
2021/04/21 02:15:47;;;;;;;45.38;21.02;;;;;;;;;;8308649;28;20047;-71
2021/04/21 02:20:30;;;;;;;45.15;20.45;;;;;;;;;;8307249;28;20040;-71
2021/04/21 02:25:09;;;;;;;51.03;21.10;;;;;;;;;;8309228;28;20467;-70
2021/04/21 02:29:52;;;;;;;51.53;21.92;;;;;;;;;;8298360;28;20466;-70
2021/04/21 02:34:32;;;;;;;48.70;21.27;;;;;;;;;;8304740;28;20352;-70
2021/04/21 02:39:11;;;;;;;46.47;20.73;;;;;;;;;;8324711;28;20074;-70
2021/04/21 02:43:36;;;;;;;;;;;;;;;;;;8308911;28;20455;-70
2021/04/21 02:47:58;;;;;;;42.03;19.83;;;;;;;;;;8323055;28;20319;-70
2021/04/21 02:52:31;;;;;;;63.53;21.25;;;;;;;;;;8306777;28;20051;-71
2021/04/21 02:57:04;;;;;;;48.13;20.88;;;;;;;;;;8307833;28;20378;-71
2021/04/21 03:01:46;;;;;;;57.45;25.42;;;;;;;;;;8307237;28;20067;-71
2021/04/21 03:06:14;;;;;;;54.15;24.38;;;;;;;;;;8322792;28;20474;-70
2021/04/21 03:10:20;;;;;;;53.83;24.23;;;;;;;;;;8321874;28;20471;-70
2021/04/21 03:14:30;;;;;;;58.85;28.75;;;;;;;;;;8323536;28;20459;-71
2021/04/21 03:18:40;;;;;;;53.03;26.00;;;;;;;;;;8306242;28;20052;-71
2021/04/21 03:22:52;;;;;;;69.32;27.58;;;;;;;;;;8305709;28;20391;-71
2021/04/21 03:27:05;;;;;;;57.65;27.38;;;;;;;;;;8304750;28;20493;-71
2021/04/21 03:31:12;;;;;;;60.88;27.08;;;;;;;;;;8311801;28;20475;-71
2021/04/21 03:35:18;;;;;;;57.17;27.10;;;;;;;;;;8311352;28;20369;-70
2021/04/21 03:39:23;;;;;;;60.13;26.38;;;;;;;;;;8312423;28;20358;-72
2021/04/21 03:43:29;;;;;;;59.50;26.60;;;;;;;;;;8312228;28;20482;-71
2021/04/21 03:47:34;;;;;;;57.35;25.42;;;;;;;;;;8311133;28;20044;-70
2021/04/21 03:51:40;;;;;;;49.60;25.80;;;;;;;;;;8310481;28;20356;-71
2021/04/21 03:55:45;;;;;;;50.20;24.08;;;;;;;;;;8311599;28;20336;-71
2021/04/21 03:59:52;;;;;;;49.78;24.85;;;;;;;;;;8310445;28;20475;-70
2021/04/21 04:04:02;;;;;;;45.97;24.10;;;;;;;;;;8310791;28;20375;-70
2021/04/21 04:08:11;;;;;;;49.42;23.88;;;;;;;;;;8328019;28;20052;-70
2021/04/21 04:12:18;;;;;;;55.30;25.98;;;;;;;;;;8311045;28;20355;-71
2021/04/21 04:16:23;;;;;;;50.95;24.38;;;;;;;;;;8310257;28;20474;-71
2021/04/21 04:20:29;;;;;;;49.47;24.65;;;;;;;;;;8310070;28;20358;-72
2021/04/21 04:24:45;;;;;;;54.78;25.02;;;;;;;;;;8310598;28;20455;-70
2021/04/21 04:28:51;;;;;;;52.75;23.50;;;;;;;;;;8327560;28;20364;-71
2021/04/21 04:32:59;;;;;;;49.78;25.20;;;;;;;;;;8309294;28;20354;-71
2021/04/21 04:37:04;;;;;;;59.83;25.10;;;;;;;;;;8310598;28;20454;-71
2021/04/21 04:41:09;;;;;;;62.80;24.92;;;;;;;;;;8309124;28;20467;-71
2021/04/21 04:45:17;;;;;;;55.75;25.27;;;;;;;;;;8327792;28;20449;-70
2021/04/21 04:49:23;;;;;;;53.67;25.88;;;;;;;;;;8310484;28;20479;-71
2021/04/21 04:53:30;;;;;;;58.80;26.52;;;;;;;;;;8310455;28;20423;-70
2021/04/21 04:57:35;;;;;;;53.80;26.55;;;;;;;;;;8328070;28;20498;-71
2021/04/21 05:01:47;;;;;;;55.17;26.05;;;;;;;;;;8308700;28;20378;-72
2021/04/21 05:05:56;;;;;;;53.10;27.45;;;;;;;;;;8326462;28;20350;-71
2021/04/21 05:10:05;;;;;;;61.20;28.42;;;;;;;;;;8309217;28;20413;-70
2021/04/21 05:14:14;;;;;;;57.15;30.00;;;;;;;;;;8325825;28;20447;-71
2021/04/21 05:18:23;;;;;;;58.50;28.55;;;;;;;;;;8325025;28;20052;-71
2021/04/21 05:23:05;;;;;;;52.78;27.10;;;;;;;;;;8324007;28;20360;-70
2021/04/21 05:27:51;;;;;;;52.42;28.02;;;;;;;;;;8324482;28;20466;-70
2021/04/21 05:31:58;;;;;;;69.45;30.38;;;;;;;;;;8307187;28;20071;-71
2021/04/21 05:36:46;;;;;;;57.42;29.70;;;;;;;;;;8325636;28;20040;-71
2021/04/21 05:41:06;;;;;;;50.78;27.17;;;;;;;;;;8325437;28;20524;-70
2021/04/21 05:45:28;;;;;;;49.38;27.73;;;;;;;;;;8308441;28;20048;-70
2021/04/21 05:50:03;;;;;;;60.97;28.42;;;;;;;;;;8325211;28;20501;-71
2021/04/21 05:54:49;;;;;;;54.75;28.23;;;;;;;;;;8306272;28;20481;-71
2021/04/21 05:59:39;;;;;;;65.68;29.65;;;;;;;;;;8307345;28;20359;-72
2021/04/21 06:03:48;;;;;;;56.88;26.58;;;;;;;;;;8306949;28;20471;-71
2021/04/21 06:07:52;;;;;;;53.85;27.15;;;;;;;;;;8307631;28;20060;-71
2021/04/21 06:12:11;;;;;;;51.28;25.58;;;;;;;;;;8325780;28;20474;-71
2021/04/21 06:16:21;;;;;;;52.70;27.15;;;;;;;;;;8323798;28;20052;-71
2021/04/21 06:20:35;;;;;;;64.20;35.10;;;;;;;;;;8324944;28;20459;-71
2021/04/21 06:24:47;;;;;;;51.83;29.00;;;;;;;;;;8307984;28;20347;-71
2021/04/21 06:28:58;;;;;;;49.45;26.52;;;;;;;;;;8307168;28;20390;-71
2021/04/21 06:33:07;;;;;;;52.70;27.65;;;;;;;;;;8325199;28;20366;-71
2021/04/21 06:37:12;;;;;;;49.67;25.88;;;;;;;;;;8323110;28;20048;-72
2021/04/21 06:41:16;;;;;;;52.20;25.35;;;;;;;;;;8288856;28;20347;-71
2021/04/21 06:45:31;;;;;;;50.25;23.83;;;;;;;;;;8322577;28;20110;-72
2021/04/21 06:49:36;;;;;;;47.97;23.90;;;;;;;;;;8322114;28;20484;-72
2021/04/21 06:53:44;;;;;;;48.30;22.65;;;;;;;;;;8306461;28;20583;-72
2021/04/21 06:57:49;;;;;;;53.75;18.88;;;;;;;;;;8322573;28;20482;-72
2021/04/21 07:01:52;;;;;;;36.72;18.95;;;;;;;;;;8323258;28;20508;-71
2021/04/21 07:06:00;;;;;;;39.67;21.00;;;;;;;;;;8323111;28;20564;-71
2021/04/21 07:10:04;;;;;;;59.42;27.55;;;;;;;;;;8322610;28;20464;-71
2021/04/21 07:14:11;;;;;;;52.00;24.75;;;;;;;;;;8321619;28;20367;-71
2021/04/21 07:18:19;;;;;;;49.90;23.52;;;;;;;;;;8323293;28;20459;-72
2021/04/21 07:22:23;;;;;;;45.38;22.17;;;;;;;;;;8322554;28;20682;-71
2021/04/21 07:26:33;;;;;;;43.95;21.88;;;;;;;;;;8304490;28;20360;-72
2021/04/21 07:30:38;;;;;;;38.53;18.85;;;;;;;;;;8322651;28;20055;-71
2021/04/21 07:34:43;;;;;;;38.67;17.02;;;;;;;;;;8322766;28;20523;-72
2021/04/21 07:39:08;;;;;;;39.22;17.65;;;;;;;;;;8322801;28;20455;-72
2021/04/21 07:43:21;;;;;;;41.67;18.27;;;;;;;;;;8322348;28;20378;-71
2021/04/21 07:47:26;;;;;;;42.28;19.00;;;;;;;;;;8303845;28;20374;-72
2021/04/21 07:51:36;;;;;;;42.03;20.17;;;;;;;;;;8323617;28;20446;-73
2021/04/21 07:55:41;;;;;;;41.42;20.13;;;;;;;;;;8322414;28;20055;-72
2021/04/21 07:59:47;;;;;;;35.25;16.25;;;;;;;;;;8321280;28;20048;-76
2021/04/21 08:03:51;;;;;;;33.90;16.02;;;;;;;;;;8300800;28;20387;-71
2021/04/21 08:08:01;;;;;;;42.38;17.92;;;;;;;;;;8320904;28;20483;-72
2021/04/21 08:12:14;;;;;;;30.98;15.35;;;;;;;;;;8353895;28;21159;-72
2021/04/21 08:16:29;;;;;;;32.38;15.55;;;;;;;;;;8359548;28;20051;-73
2021/04/21 08:20:40;;;;;;;33.33;14.75;;;;;;;;;;8361968;28;20450;-72
2021/04/21 08:25:03;;;;;;;36.20;15.68;;;;;;;;;;8360298;28;20347;-71
2021/04/21 08:29:10;;;;;;;22.80;11.57;;;;;;;;;;8362222;28;20438;-71
2021/04/21 08:33:14;;;;;;;24.97;10.47;;;;;;;;;;8344480;28;20470;-72
2021/04/21 08:37:20;;;;;;;16.80;10.35;;;;;;;;;;8361155;28;20493;-71
2021/04/21 08:41:28;;;;;;;20.10;10.30;;;;;;;;;;8360646;28;20482;-72
2021/04/21 08:45:31;;;;;;;18.42;9.82;;;;;;;;;;8359912;28;20048;-71
2021/04/21 08:49:45;;;;;;;16.58;9.00;;;;;;;;;;8352382;28;20480;-69
2021/04/21 08:54:04;;;;;;;15.98;8.80;;;;;;;;;;8360373;28;20452;-70
2021/04/21 08:58:09;;;;;;;14.05;7.22;;;;;;;;;;8358926;28;20454;-70
2021/04/21 09:02:15;;;;;;;17.75;8.10;;;;;;;;;;8360627;28;20470;-70
2021/04/21 09:06:20;;;;;;;20.65;7.70;;;;;;;;;;8337942;28;20414;-69
2021/04/21 09:10:24;;;;;;;13.85;6.95;;;;;;;;;;8307476;28;20060;-69
2021/04/21 09:14:29;;;;;;;15.05;8.02;;;;;;;;;;8324960;28;20454;-70
2021/04/21 09:18:36;;;;;;;13.68;7.97;;;;;;;;;;8307677;28;20364;-70
2021/04/21 09:23:04;;;;;;;10.82;7.20;;;;;;;;;;8308341;28;20414;-70
2021/04/21 09:27:33;;;;;;;16.40;7.90;;;;;;;;;;8308922;28;20106;-70
2021/04/21 09:31:37;;;;;;;9.38;5.50;;;;;;;;;;8308208;28;20356;-70
2021/04/21 09:35:44;;;;;;;22.58;12.52;;;;;;;;;;8327321;28;20539;-70
2021/04/21 09:39:47;;;;;;;27.92;8.82;;;;;;;;;;8307780;28;20467;-70
2021/04/21 09:43:52;;;;;;;11.80;7.57;;;;;;;;;;8325745;28;20071;-70
2021/04/21 09:48:16;;;;;;;9.95;6.50;;;;;;;;;;8325309;28;20379;-70
2021/04/21 09:52:22;;;;;;;12.70;6.32;;;;;;;;;;8325473;28;20470;-70
2021/04/21 09:56:41;;;;;;;12.93;6.15;;;;;;;;;;8307792;28;20359;-72
2021/04/21 10:00:45;;;;;;;14.10;6.25;;;;;;;;;;8327260;28;20387;-70
2021/04/21 10:04:49;;;;;;;8.13;5.45;;;;;;;;;;8326220;28;20360;-70
2021/04/21 10:08:52;;;;;;;10.15;5.85;;;;;;;;;;8341580;28;20378;-69
2021/04/21 10:12:57;;;;;;;10.70;6.32;;;;;;;;;;8360059;28;20466;-70
2021/04/21 10:17:01;;;;;;;12.88;5.93;;;;;;;;;;8359889;28;20511;-73
2021/04/21 10:21:06;;;;;;;10.05;5.88;;;;;;;;;;8356429;28;20482;-70
2021/04/21 10:25:14;;;;;;;13.88;6.75;;;;;;;;;;8357301;28;20062;-70
2021/04/21 10:29:19;;;;;;;13.60;5.95;;;;;;;;;;8359561;28;20490;-70
2021/04/21 10:33:26;;;;;;;10.75;5.40;;;;;;;;;;8355827;28;20405;-70
2021/04/21 10:37:35;;;;;;;12.57;5.40;;;;;;;;;;8357302;28;20052;-71
2021/04/21 10:41:44;;;;;;;425.17;227.27;;;;;;;;;;8357670;28;20437;-72
2021/04/21 10:45:53;;;;;;;54.90;15.73;;;;;;;;;;8359777;28;20052;-70
2021/04/21 10:50:01;;;;;;;21.45;7.80;;;;;;;;;;8355941;28;20074;-69
2021/04/21 10:54:08;;;;;;;10.70;5.00;;;;;;;;;;8356356;28;20344;-69
2021/04/21 10:58:13;;;;;;;17.60;6.47;;;;;;;;;;8356914;28;20070;-70
2021/04/21 11:02:57;;;;;;;15.07;7.60;;;;;;;;;;8357057;28;20051;-70
2021/04/21 11:07:34;;;;;;;14.98;7.38;;;;;;;;;;8348091;28;20485;-70
2021/04/21 11:11:48;;;;;;;13.45;6.82;;;;;;;;;;8322364;28;20471;-69
2021/04/21 11:15:54;;;;;;;7.97;4.78;;;;;;;;;;8305928;28;20095;-70
2021/04/21 11:20:00;;;;;;;9.13;6.43;;;;;;;;;;8306025;28;20044;-69
2021/04/21 11:24:05;;;;;;;18.75;7.25;;;;;;;;;;8305535;28;20113;-69
2021/04/21 11:28:09;;;;;;;12.63;6.28;;;;;;;;;;8322351;28;20366;-69
2021/04/21 11:32:16;;;;;;;9.35;5.18;;;;;;;;;;8303619;28;20432;-70
2021/04/21 11:37:06;;;;;;;31.95;13.88;;;;;;;;;;8306138;28;20078;-69
2021/04/21 11:41:20;;;;;;;10.07;5.20;;;;;;;;;;8321825;28;20405;-70
2021/04/21 11:45:30;;;;;;;8.32;4.38;;;;;;;;;;8323033;28;20487;-69
2021/04/21 11:49:59;;;;;;;13.30;5.88;;;;;;;;;;8306668;28;20492;-68
2021/04/21 11:54:05;;;;;;;10.02;5.53;;;;;;;;;;8327335;28;20485;-70
2021/04/21 11:58:18;;;;;;;8.43;4.10;;;;;;;;;;8310358;28;20071;-70
2021/04/21 12:02:23;;;;;;;7.65;3.22;;;;;;;;;;8310620;28;20396;-70
2021/04/21 12:06:31;;;;;;;7.38;3.10;;;;;;;;;;8310473;28;20364;-69
2021/04/21 12:10:37;;;;;;;3.90;2.20;;;;;;;;;;8328532;28;20060;-69
2021/04/21 12:14:46;;;;;;;4.28;2.60;;;;;;;;;;8309931;28;20370;-70
2021/04/21 12:18:54;;;;;;;3.40;2.30;;;;;;;;;;8327206;28;20405;-71
2021/04/21 12:23:00;;;;;;;5.70;2.60;;;;;;;;;;8276884;28;21200;-70
2021/04/21 12:27:04;;;;;;;8.80;2.90;;;;;;;;;;8329075;28;20056;-71
2021/04/21 12:31:09;;;;;;;13.88;4.38;;;;;;;;;;8328988;28;20056;-71
2021/04/21 12:35:15;;;;;;;7.00;3.75;;;;;;;;;;8328233;28;20467;-70
2021/04/21 12:39:25;;;;;;;6.13;3.60;;;;;;;;;;8310721;28;20474;-71
2021/04/21 12:43:35;;;;;;;6.00;3.20;;;;;;;;;;8328487;28;20450;-70
2021/04/21 12:47:40;;;;;;;10.90;3.15;;;;;;;;;;8313120;28;20366;-71
2021/04/21 12:51:50;;;;;;;5.63;3.40;;;;;;;;;;8309974;28;20359;-71
2021/04/21 12:56:10;;;;;;;6.63;3.67;;;;;;;;;;8328024;28;20487;-71
2021/04/21 13:00:18;;;;;;;10.75;5.20;;;;;;;;;;8292865;28;20466;-70
2021/04/21 13:04:36;;;;;;;13.60;7.20;;;;;;;;;;8327850;28;20473;-71
2021/04/21 13:08:41;;;;;;;8.70;4.35;;;;;;;;;;8337308;28;20491;-71
2021/04/21 13:13:00;;;;;;;10.10;4.75;;;;;;;;;;8359880;27;20424;-70
2021/04/21 13:17:06;;;;;;;18.08;6.20;;;;;;;;;;8360054;28;20470;-70
2021/04/21 13:21:12;;;;;;;9.45;5.05;;;;;;;;;;8359476;28;20409;-70
2021/04/21 13:25:19;;;;;;;10.38;4.70;;;;;;;;;;8360218;28;20347;-70
2021/04/21 13:29:34;;;;;;;9.48;4.10;;;;;;;;;;8360403;28;20121;-70
2021/04/21 13:33:43;;;;;;;6.70;3.38;;;;;;;;;;8359108;28;20373;-70
2021/04/21 13:37:51;;;;;;;6.05;2.72;;;;;;;;;;8358746;28;20481;-70
2021/04/21 13:41:55;;;;;;;7.35;3.97;;;;;;;;;;8359072;28;20040;-71
2021/04/21 13:46:00;;;;;;;14.98;3.42;;;;;;;;;;8358051;28;20389;-71
2021/04/21 13:50:07;;;;;;;5.95;3.17;;;;;;;;;;8360141;28;20379;-70
2021/04/21 13:54:10;;;;;;;7.72;3.08;;;;;;;;;;8358860;27;20388;-70
2021/04/21 13:58:15;;;;;;;12.15;6.07;;;;;;;;;;8359710;28;20048;-70
2021/04/21 14:02:20;;;;;;;6.85;4.18;;;;;;;;;;8360743;27;20477;-69
2021/04/21 14:06:24;;;;;;;11.82;6.38;;;;;;;;;;8355986;28;20406;-70
2021/04/21 14:10:28;;;;;;;7.95;3.97;;;;;;;;;;8306756;28;20048;-70
2021/04/21 14:14:32;;;;;;;16.35;6.10;;;;;;;;;;8306011;28;20056;-70
2021/04/21 14:18:37;;;;;;;20.25;8.48;;;;;;;;;;8325346;28;20048;-69
2021/04/21 14:22:45;;;;;;;15.52;8.27;;;;;;;;;;8324581;28;20052;-69
2021/04/21 14:26:51;;;;;;;7.68;4.07;;;;;;;;;;8323664;28;20485;-70
2021/04/21 14:30:55;;;;;;;9.55;4.57;;;;;;;;;;8307304;28;20393;-69
2021/04/21 14:35:00;;;;;;;8.93;3.90;;;;;;;;;;8323648;28;20044;-70
2021/04/21 14:39:06;;;;;;;9.80;4.70;;;;;;;;;;8307302;28;20478;-69
2021/04/21 14:43:10;;;;;;;4.45;3.15;;;;;;;;;;8324009;28;20465;-70
2021/04/21 14:47:14;;;;;;;10.57;5.55;;;;;;;;;;8322813;28;20478;-69
2021/04/21 14:51:20;;;;;;;22.33;4.70;;;;;;;;;;8305165;28;20040;-69
2021/04/21 14:55:23;;;;;;;9.88;3.70;;;;;;;;;;8324884;28;20477;-70
2021/04/21 14:59:28;;;;;;;13.77;4.43;;;;;;;;;;8324132;28;20048;-70
2021/04/21 15:03:32;;;;;;;7.47;4.53;;;;;;;;;;8321597;28;20348;-70
2021/04/21 15:07:39;;;;;;;9.95;4.85;;;;;;;;;;8306651;28;20083;-70
2021/04/21 15:11:44;;;;;;;17.00;9.45;;;;;;;;;;8321339;28;20493;-69
2021/04/21 15:15:53;;;;;;;9.27;4.32;;;;;;;;;;8325843;28;20048;-68
2021/04/21 15:19:58;;;;;;;12.23;5.22;;;;;;;;;;8323646;28;20052;-69
2021/04/21 15:24:08;;;;;;;15.07;5.78;;;;;;;;;;8323622;28;20079;-69
2021/04/21 15:28:11;;;;;;;8.73;4.72;;;;;;;;;;8329891;28;20359;-69
2021/04/21 15:32:16;;;;;;;10.05;5.32;;;;;;;;;;8330786;28;20466;-69
2021/04/21 15:36:21;;;;;;;12.13;5.72;;;;;;;;;;8329947;28;20382;-69
2021/04/21 15:40:29;;;;;;;14.02;6.40;;;;;;;;;;8312512;28;20378;-69
2021/04/21 15:44:34;;;;;;;18.92;10.52;;;;;;;;;;8329529;28;20386;-69
2021/04/21 15:48:42;;;;;;;18.08;10.95;;;;;;;;;;8329802;28;20284;-69
2021/04/21 15:52:48;;;;;;;27.27;11.70;;;;;;;;;;8312325;28;20329;-70
2021/04/21 15:56:53;;;;;;;17.63;9.90;;;;;;;;;;8295059;28;20358;-70
2021/04/21 16:01:04;;;;;;;24.40;11.85;;;;;;;;;;8329506;28;20548;-70
2021/04/21 16:05:24;;;;;;;15.73;9.02;;;;;;;;;;8327818;28;20459;-70
2021/04/21 16:09:28;;;;;;;14.77;8.10;;;;;;;;;;8351842;28;20348;-69
2021/04/21 16:13:33;;;;;;;15.43;7.03;;;;;;;;;;8359863;28;20070;-69
2021/04/21 16:17:38;;;;;;;17.48;7.53;;;;;;;;;;8361309;28;20083;-69
2021/04/21 16:21:45;;;;;;;16.63;7.15;;;;;;;;;;8342073;28;20470;-69
2021/04/21 16:25:55;;;;;;;15.93;7.05;;;;;;;;;;8375790;27;20044;-69
2021/04/21 16:29:58;;;;;;;17.02;6.15;;;;;;;;;;8361478;28;20480;-69
2021/04/21 16:34:03;;;;;;;10.10;6.65;;;;;;;;;;8359113;28;20136;-69
2021/04/21 16:38:07;;;;;;;10.73;5.65;;;;;;;;;;8359273;28;20465;-69
2021/04/21 16:42:12;;;;;;;11.75;5.53;;;;;;;;;;8358729;28;20460;-69
2021/04/21 16:46:17;;;;;;;13.30;7.10;;;;;;;;;;8359628;28;20473;-72
2021/04/21 16:50:20;;;;;;;17.50;10.20;;;;;;;;;;8359773;28;20470;-71
2021/04/21 16:54:23;;;;;;;36.83;15.85;;;;;;;;;;8361456;28;20474;-69
2021/04/21 16:58:28;;;;;;;21.02;10.85;;;;;;;;;;8359617;28;20386;-69
2021/04/21 17:02:32;;;;;;;80.75;54.88;;;;;;;;;;8358415;28;20086;-71
2021/04/21 17:06:42;;;;;;;509.38;350.27;;;;;;;;;;8353900;28;20051;-71
2021/04/21 17:10:47;;;;;;;190.38;121.50;;;;;;;;;;8308587;28;20439;-71
2021/04/21 17:15:05;;;;;;;152.82;102.32;;;;;;;;;;8326585;28;20074;-71
2021/04/21 17:19:10;;;;;;;;;;;;;;;;;;8325938;28;20074;-71
2021/04/21 17:23:14;;;;;;;63.60;34.28;;;;;;;;;;8327784;28;20361;-71
2021/04/21 17:27:19;;;;;;;54.22;30.40;;;;;;;;;;8326693;28;20060;-71
2021/04/21 17:31:23;;;;;;;90.70;43.67;;;;;;;;;;8308351;28;20383;-70
2021/04/21 17:35:28;;;;;;;65.97;34.03;;;;;;;;;;8325270;28;20370;-70
2021/04/21 17:39:36;;;;;;;40.50;22.45;;;;;;;;;;8325739;28;20363;-71
2021/04/21 17:43:45;;;;;;;68.40;29.75;;;;;;;;;;8308316;28;20044;-69
2021/04/21 17:47:52;;;;;;;82.97;26.75;;;;;;;;;;8256693;28;20557;-71
2021/04/21 17:52:00;;;;;;;79.22;29.63;;;;;;;;;;8274414;28;20328;-71
2021/04/21 17:56:04;;;;;;;47.35;19.15;;;;;;;;;;8291795;28;20363;-70
2021/04/21 18:00:12;;;;;;;34.30;15.30;;;;;;;;;;8291655;28;20463;-69
2021/04/21 18:04:17;;;;;;;46.85;23.80;;;;;;;;;;8292083;28;20474;-70
2021/04/21 18:08:25;;;;;;;43.22;20.50;;;;;;;;;;8294772;28;20055;-70
2021/04/21 18:12:30;;;;;;;33.47;16.33;;;;;;;;;;8322478;28;20470;-70
2021/04/21 18:16:35;;;;;;;35.58;17.45;;;;;;;;;;8322615;28;20070;-70
2021/04/21 18:20:40;;;;;;;36.33;18.08;;;;;;;;;;8324257;28;20459;-70
2021/04/21 18:24:46;;;;;;;45.70;20.33;;;;;;;;;;8323298;28;20347;-70
2021/04/21 18:28:49;;;;;;;45.60;19.80;;;;;;;;;;8323546;28;20359;-70
2021/04/21 18:32:55;;;;;;;33.30;16.42;;;;;;;;;;8322065;28;20417;-70
2021/04/21 18:36:58;;;;;;;43.08;18.00;;;;;;;;;;8321886;28;20356;-70
2021/04/21 18:41:04;;;;;;;52.45;20.95;;;;;;;;;;8321870;28;20350;-69
2021/04/21 18:45:10;;;;;;;55.15;22.83;;;;;;;;;;8321705;28;20461;-70
2021/04/21 18:49:17;;;;;;;49.63;22.73;;;;;;;;;;8322292;28;20358;-70
2021/04/21 18:53:22;;;;;;;58.25;24.48;;;;;;;;;;8320952;28;20466;-71
2021/04/21 18:57:25;;;;;;;50.17;24.75;;;;;;;;;;8323040;28;20388;-71
2021/04/21 19:01:29;;;;;;;56.53;26.00;;;;;;;;;;8322155;28;20062;-70
2021/04/21 19:05:34;;;;;;;62.83;28.25;;;;;;;;;;8322064;28;20446;-72
2021/04/21 19:09:49;;;;;;;70.03;29.40;;;;;;;;;;8385943;27;20951;-69
2021/04/21 19:13:55;;;;;;;92.43;33.95;;;;;;;;;;8351415;28;20493;-70
2021/04/21 19:18:07;;;;;;;86.47;31.88;;;;;;;;;;8352540;28;20481;-70
2021/04/21 19:22:13;;;;;;;90.10;35.05;;;;;;;;;;8351474;28;20381;-70
2021/04/21 19:26:19;;;;;;;90.65;34.40;;;;;;;;;;8350699;28;20466;-69
2021/04/21 19:30:25;;;;;;;79.90;30.73;;;;;;;;;;8350641;28;20070;-69
2021/04/21 19:34:33;;;;;;;103.28;36.40;;;;;;;;;;8351278;28;20401;-70
2021/04/21 19:38:38;;;;;;;104.30;35.58;;;;;;;;;;8350994;28;20374;-70
2021/04/21 19:42:43;;;;;;;104.93;35.92;;;;;;;;;;8350967;28;20058;-69
2021/04/21 19:46:50;;;;;;;97.38;40.28;;;;;;;;;;8318868;28;20052;-70
2021/04/21 19:51:00;;;;;;;71.22;32.60;;;;;;;;;;8352809;28;20442;-70
2021/04/21 19:55:07;;;;;;;80.10;34.85;;;;;;;;;;8351055;28;20362;-69
2021/04/21 19:59:13;;;;;;;75.57;32.30;;;;;;;;;;8352645;28;20532;-69
2021/04/21 20:03:20;;;;;;;70.25;30.48;;;;;;;;;;8352635;28;20459;-70
2021/04/21 20:07:29;;;;;;;76.40;30.43;;;;;;;;;;8349834;28;20055;-71
2021/04/21 20:11:33;;;;;;;85.50;33.22;;;;;;;;;;8349222;28;20070;-70
2021/04/21 20:15:41;;;;;;;67.15;29.27;;;;;;;;;;8350330;28;20052;-70
2021/04/21 20:19:46;;;;;;;79.93;31.88;;;;;;;;;;8336492;28;20052;-69
2021/04/21 20:23:50;;;;;;;79.88;31.90;;;;;;;;;;8327652;28;20071;-70
2021/04/21 20:27:54;;;;;;;90.57;33.13;;;;;;;;;;8326670;28;20067;-70
2021/04/21 20:32:00;;;;;;;74.78;27.90;;;;;;;;;;8327269;28;20501;-70
2021/04/21 20:36:06;;;;;;;73.80;29.55;;;;;;;;;;8325468;28;20442;-70
2021/04/21 20:40:12;;;;;;;76.20;26.65;;;;;;;;;;8327964;28;20370;-71
2021/04/21 20:44:16;;;;;;;67.95;25.15;;;;;;;;;;8326854;28;20371;-69
2021/04/21 20:48:21;;;;;;;65.30;25.17;;;;;;;;;;8326417;28;20074;-70
2021/04/21 20:52:25;;;;;;;73.35;27.17;;;;;;;;;;8327093;28;20106;-69
2021/04/21 20:56:30;;;;;;;88.32;26.70;;;;;;;;;;8327937;28;20044;-71
2021/04/21 21:00:34;;;;;;;61.10;22.15;;;;;;;;;;8326586;28;20470;-70
2021/04/21 21:04:38;;;;;;;62.72;23.10;;;;;;;;;;8326137;28;20374;-69
2021/04/21 21:08:42;;;;;;;68.15;24.83;;;;;;;;;;8325883;28;20474;-70
2021/04/21 21:12:51;;;;;;;60.47;23.58;;;;;;;;;;8325441;28;20362;-71
2021/04/21 21:16:55;;;;;;;44.75;20.52;;;;;;;;;;8326020;28;20410;-69
2021/04/21 21:21:00;;;;;;;47.22;20.58;;;;;;;;;;8325909;28;20071;-70
2021/04/21 21:25:06;;;;;;;54.20;20.98;;;;;;;;;;8328169;28;20389;-69
2021/04/21 21:29:10;;;;;;;47.75;21.00;;;;;;;;;;8324454;28;20382;-71
2021/04/21 21:33:15;;;;;;;49.60;19.38;;;;;;;;;;8325070;28;20471;-70
2021/04/21 21:37:20;;;;;;;54.55;20.98;;;;;;;;;;8340665;28;20459;-70
2021/04/21 21:41:24;;;;;;;55.65;20.73;;;;;;;;;;8325172;28;20385;-69
2021/04/21 21:45:28;;;;;;;45.10;19.58;;;;;;;;;;8325065;28;20051;-70
2021/04/21 21:49:33;;;;;;;70.32;26.85;;;;;;;;;;8325118;28;20048;-70
2021/04/21 21:53:37;;;;;;;72.85;26.65;;;;;;;;;;8323278;28;20416;-70
2021/04/21 21:57:42;;;;;;;68.60;27.92;;;;;;;;;;8326036;28;20459;-71
2021/04/21 22:01:47;;;;;;;72.13;28.77;;;;;;;;;;8324248;28;20386;-71
2021/04/21 22:05:51;;;;;;;58.60;25.15;;;;;;;;;;8325547;28;20486;-70
2021/04/21 22:09:55;;;;;;;53.67;24.52;;;;;;;;;;8325931;28;20459;-70
2021/04/21 22:14:00;;;;;;;45.63;21.50;;;;;;;;;;8324895;28;20463;-70
2021/04/21 22:18:05;;;;;;;45.88;20.08;;;;;;;;;;8323950;28;20484;-70
2021/04/21 22:22:11;;;;;;;38.38;18.40;;;;;;;;;;8323855;28;20056;-71
2021/04/21 22:26:15;;;;;;;38.45;18.55;;;;;;;;;;8324615;28;20470;-69
2021/04/21 22:30:30;;;;;;;38.90;17.30;;;;;;;;;;8323842;28;20421;-70
2021/04/21 22:34:34;;;;;;;41.08;18.85;;;;;;;;;;8322736;28;20060;-70
2021/04/21 22:38:39;;;;;;;36.25;15.88;;;;;;;;;;8323394;28;20475;-71
2021/04/21 22:42:43;;;;;;;38.05;17.23;;;;;;;;;;8325617;28;20070;-70
2021/04/21 22:46:48;;;;;;;37.50;16.38;;;;;;;;;;8323536;28;20486;-70
2021/04/21 22:50:52;;;;;;;34.03;16.35;;;;;;;;;;8321665;28;20487;-70
2021/04/21 22:54:56;;;;;;;33.28;15.70;;;;;;;;;;8323875;28;20063;-70
2021/04/21 22:59:01;;;;;;;26.85;13.85;;;;;;;;;;8323586;28;20066;-69
2021/04/21 23:03:06;;;;;;;34.80;16.38;;;;;;;;;;8322517;28;20465;-69
2021/04/21 23:07:10;;;;;;;28.77;13.73;;;;;;;;;;8322175;28;20075;-69
2021/04/21 23:11:15;;;;;;;32.95;16.02;;;;;;;;;;8326552;28;20457;-69
2021/04/21 23:15:18;;;;;;;27.40;15.93;;;;;;;;;;8305826;28;20394;-69
2021/04/21 23:19:24;;;;;;;29.17;13.93;;;;;;;;;;8305568;28;20575;-70
2021/04/21 23:23:29;;;;;;;32.08;13.32;;;;;;;;;;8325783;28;20459;-71
2021/04/21 23:27:32;;;;;;;27.25;13.48;;;;;;;;;;8322374;28;20481;-70
2021/04/21 23:31:37;;;;;;;27.92;13.32;;;;;;;;;;8322380;28;20538;-70
2021/04/21 23:35:41;;;;;;;33.75;13.68;;;;;;;;;;8322435;28;20364;-70
2021/04/21 23:39:46;;;;;;;26.75;13.52;;;;;;;;;;8322926;28;20470;-70
2021/04/21 23:43:50;;;;;;;38.55;16.98;;;;;;;;;;8323414;28;20040;-70
2021/04/21 23:47:55;;;;;;;50.63;23.60;;;;;;;;;;8322032;28;20462;-70
2021/04/21 23:52:02;;;;;;;38.08;17.58;;;;;;;;;;8321321;28;20482;-71
2021/04/21 23:56:06;;;;;;;36.22;16.95;;;;;;;;;;8327266;28;20417;-72
